createdAt,value
2023-03-21T00:00:32.313Z,21.00
2023-03-21T00:01:33.724Z,21.25
2023-03-21T00:02:35.204Z,22.65
2023-03-21T00:03:36.831Z,21.48
2023-03-21T00:04:50.896Z,19.77
2023-03-21T00:05:54.265Z,20.17
2023-03-21T00:06:55.824Z,20.83
2023-03-21T00:07:57.337Z,20.15
2023-03-21T00:08:58.752Z,20.05
2023-03-21T00:10:12.521Z,21.30
2023-03-21T00:11:16.862Z,20.25
2023-03-21T00:12:20.980Z,20.23
2023-03-21T00:13:22.759Z,20.35
2023-03-21T00:14:25.995Z,20.92
2023-03-21T00:15:40.033Z,20.90
2023-03-21T00:16:50.414Z,19.98
2023-03-21T00:17:58.255Z,20.40
2023-03-21T00:19:03.148Z,20.27
2023-03-21T00:20:05.905Z,21.08
2023-03-21T00:21:39.286Z,21.33
2023-03-21T00:22:30.379Z,21.02
2023-03-21T00:23:33.491Z,20.58
2023-03-21T00:24:35.952Z,19.10
2023-03-21T00:25:37.667Z,20.13
2023-03-21T00:26:39.272Z,19.33
2023-03-21T00:28:00.873Z,20.13
2023-03-21T00:29:02.419Z,19.15
2023-03-21T00:30:05.311Z,21.05
2023-03-21T00:31:07.521Z,19.88
2023-03-21T00:32:08.933Z,19.40
2023-03-21T00:33:22.001Z,20.00
2023-03-21T00:34:36.417Z,19.52
2023-03-21T00:36:02.435Z,19.27
2023-03-21T00:37:08.011Z,18.38
2023-03-21T00:38:10.188Z,18.80
2023-03-21T00:39:11.770Z,19.55
2023-03-21T00:40:25.341Z,19.52
2023-03-21T00:41:41.521Z,20.15
2023-03-21T00:42:44.103Z,19.55
2023-03-21T00:43:46.170Z,19.48
2023-03-21T00:44:47.655Z,18.52
2023-03-21T00:45:51.229Z,19.27
2023-03-21T00:47:06.190Z,19.85
2023-03-21T00:48:09.002Z,19.27
2023-03-21T00:49:10.507Z,19.88
2023-03-21T00:50:12.008Z,19.13
2023-03-21T00:51:26.415Z,19.77
2023-03-21T00:52:40.171Z,19.60
2023-03-21T00:53:42.841Z,19.48
2023-03-21T00:54:44.264Z,19.63
2023-03-21T00:55:46.143Z,20.02
2023-03-21T00:56:47.604Z,19.48
2023-03-21T00:57:56.182Z,19.15
2023-03-21T00:59:02.961Z,18.67
2023-03-21T01:00:07.530Z,19.45
2023-03-21T01:01:09.326Z,19.30
2023-03-21T01:03:24.324Z,17.70
2023-03-21T01:04:28.195Z,18.73
2023-03-21T01:05:49.808Z,18.88
2023-03-21T01:06:51.224Z,18.17
2023-03-21T01:07:53.235Z,18.85
2023-03-21T01:09:56.274Z,17.45
2023-03-21T01:11:02.216Z,19.58
2023-03-21T01:12:03.693Z,18.77
2023-03-21T01:13:05.274Z,19.92
2023-03-21T01:14:21.476Z,19.52
2023-03-21T01:15:24.220Z,19.42
2023-03-21T01:16:25.789Z,19.27
2023-03-21T01:17:27.216Z,20.10
2023-03-21T01:18:29.963Z,18.63
2023-03-21T01:19:48.338Z,20.08
2023-03-21T01:20:53.726Z,20.80
2023-03-21T01:21:56.778Z,19.73
2023-03-21T01:22:58.243Z,19.83
2023-03-21T01:23:59.986Z,19.05
2023-03-21T01:25:19.150Z,20.52
2023-03-21T01:26:23.099Z,19.23
2023-03-21T01:27:24.553Z,19.83
2023-03-21T01:28:27.921Z,19.27
2023-03-21T01:29:29.427Z,19.75
2023-03-21T01:30:33.971Z,20.35
2023-03-21T01:31:38.665Z,19.90
2023-03-21T01:32:40.380Z,19.50
2023-03-21T01:33:42.407Z,20.25
2023-03-21T01:35:55.180Z,19.17
2023-03-21T01:37:01.863Z,19.60
2023-03-21T01:38:03.384Z,20.00
2023-03-21T01:39:06.126Z,19.77
2023-03-21T01:40:12.712Z,20.90
2023-03-21T01:41:42.568Z,20.75
2023-03-21T01:42:45.611Z,20.83
2023-03-21T01:43:47.855Z,21.13
2023-03-21T01:45:01.941Z,21.55
2023-03-21T01:46:10.522Z,21.27
2023-03-21T01:47:12.860Z,22.05
2023-03-21T01:48:15.604Z,21.77
2023-03-21T01:49:38.563Z,23.23
2023-03-21T01:50:42.069Z,22.90
2023-03-21T01:51:53.749Z,23.30
2023-03-21T01:52:56.615Z,23.75
2023-03-21T01:53:58.275Z,24.38
2023-03-21T01:55:02.343Z,24.77
2023-03-21T01:56:11.335Z,25.33
2023-03-21T01:57:19.880Z,25.17
2023-03-21T01:58:22.143Z,24.95
2023-03-21T01:59:29.104Z,27.38
2023-03-21T02:00:32.044Z,26.73
2023-03-21T02:01:38.265Z,26.50
2023-03-21T02:02:52.303Z,25.80
2023-03-21T02:03:54.331Z,26.02
2023-03-21T02:04:58.158Z,26.08
2023-03-21T02:06:02.437Z,26.73
2023-03-21T02:07:07.305Z,26.13
2023-03-21T02:08:08.840Z,26.40
2023-03-21T02:09:18.015Z,26.98
2023-03-21T02:10:20.059Z,26.50
2023-03-21T02:12:24.844Z,26.10
2023-03-21T02:13:26.482Z,25.98
2023-03-21T02:14:32.963Z,27.17
2023-03-21T02:15:37.145Z,28.05
2023-03-21T02:16:45.201Z,27.25
2023-03-21T02:18:28.105Z,27.17
2023-03-21T02:20:00.665Z,26.70
2023-03-21T02:21:24.340Z,27.80
2023-03-21T02:22:51.862Z,27.55
2023-03-21T02:24:08.402Z,27.10
2023-03-21T02:25:34.094Z,27.35
2023-03-21T02:27:03.388Z,26.52
2023-03-21T02:28:15.349Z,28.23
2023-03-21T02:29:35.052Z,27.27
2023-03-21T02:31:01.089Z,27.55
2023-03-21T02:32:37.444Z,27.45
2023-03-21T02:34:04.262Z,27.13
2023-03-21T02:35:12.090Z,28.05
2023-03-21T02:36:18.087Z,28.20
2023-03-21T02:37:37.756Z,28.05
2023-03-21T02:39:04.763Z,27.35
2023-03-21T02:40:15.364Z,27.33
2023-03-21T02:41:40.317Z,27.00
2023-03-21T02:43:23.762Z,27.15
2023-03-21T02:44:39.308Z,26.45
2023-03-21T02:45:49.691Z,27.55
2023-03-21T02:47:05.959Z,28.55
2023-03-21T02:48:25.417Z,28.15
2023-03-21T02:49:46.614Z,26.17
2023-03-21T02:50:52.599Z,26.45
2023-03-21T02:52:00.296Z,27.73
2023-03-21T02:53:09.075Z,26.58
2023-03-21T02:54:35.374Z,27.58
2023-03-21T02:55:43.013Z,26.13
2023-03-21T02:56:47.040Z,25.98
2023-03-21T02:57:52.481Z,26.52
2023-03-21T02:58:54.479Z,25.90
2023-03-21T03:00:00.398Z,26.17
2023-03-21T03:01:09.035Z,26.67
2023-03-21T03:02:11.301Z,25.48
2023-03-21T03:03:24.884Z,26.40
2023-03-21T03:04:33.149Z,26.75
2023-03-21T03:05:37.702Z,26.50
2023-03-21T03:06:57.953Z,26.60
2023-03-21T03:08:38.203Z,25.75
2023-03-21T03:10:19.754Z,23.98
2023-03-21T03:11:24.202Z,25.58
2023-03-21T03:12:35.878Z,26.05
2023-03-21T03:14:25.213Z,26.25
2023-03-21T03:15:45.646Z,24.85
2023-03-21T03:17:08.944Z,25.15
2023-03-21T03:18:35.887Z,25.27
2023-03-21T03:19:50.655Z,25.48
2023-03-21T03:21:01.920Z,24.20
2023-03-21T03:22:10.239Z,24.52
2023-03-21T03:23:56.917Z,25.08
2023-03-21T03:25:18.602Z,24.42
2023-03-21T03:28:47.414Z,22.42
2023-03-21T03:29:51.084Z,22.92
2023-03-21T03:31:08.166Z,24.58
2023-03-21T03:32:19.864Z,26.55
2023-03-21T03:33:23.517Z,26.98
2023-03-21T03:34:32.965Z,26.58
2023-03-21T03:35:34.459Z,26.42
2023-03-21T03:36:41.893Z,25.38
2023-03-21T03:37:48.044Z,26.50
2023-03-21T03:38:50.793Z,26.60
2023-03-21T03:40:06.894Z,28.00
2023-03-21T03:41:19.533Z,25.73
2023-03-21T03:42:34.651Z,26.83
2023-03-21T03:43:43.690Z,27.10
2023-03-21T03:44:45.820Z,26.33
2023-03-21T03:45:51.795Z,26.17
2023-03-21T03:46:59.586Z,26.60
2023-03-21T03:48:12.077Z,26.23
2023-03-21T03:49:19.270Z,27.40
2023-03-21T03:50:26.439Z,26.63
2023-03-21T03:51:34.512Z,25.63
2023-03-21T03:52:57.059Z,26.65
2023-03-21T03:54:04.479Z,26.38
2023-03-21T03:55:07.162Z,27.15
2023-03-21T03:56:11.560Z,27.05
2023-03-21T03:57:14.041Z,26.55
2023-03-21T03:58:23.630Z,27.27
2023-03-21T03:59:26.228Z,26.98
2023-03-21T04:00:31.657Z,26.05
2023-03-21T04:01:34.740Z,27.02
2023-03-21T04:02:36.397Z,28.13
2023-03-21T04:03:48.955Z,28.55
2023-03-21T04:04:53.335Z,26.38
2023-03-21T04:05:54.843Z,26.77
2023-03-21T04:06:58.034Z,27.58
2023-03-21T04:07:59.590Z,28.02
2023-03-21T04:09:03.506Z,27.85
2023-03-21T04:10:07.197Z,27.33
2023-03-21T04:11:10.286Z,26.42
2023-03-21T04:12:12.982Z,27.90
2023-03-21T04:13:15.355Z,26.70
2023-03-21T04:14:17.134Z,26.92
2023-03-21T04:15:19.363Z,27.42
2023-03-21T04:16:20.921Z,25.52
2023-03-21T04:17:22.907Z,26.58
2023-03-21T04:18:24.530Z,25.98
2023-03-21T04:19:26.572Z,26.55
2023-03-21T04:21:39.494Z,25.52
2023-03-21T04:22:41.047Z,25.27
2023-03-21T04:23:42.590Z,27.02
2023-03-21T04:24:44.790Z,27.63
2023-03-21T04:25:55.922Z,26.48
2023-03-21T04:26:58.307Z,26.63
2023-03-21T04:27:59.743Z,25.52
2023-03-21T04:29:02.134Z,26.42
2023-03-21T04:30:05.226Z,27.63
2023-03-21T04:31:22.612Z,27.10
2023-03-21T04:32:27.304Z,26.67
2023-03-21T04:33:28.728Z,26.90
2023-03-21T04:34:30.230Z,25.98
2023-03-21T04:35:31.756Z,26.35
2023-03-21T04:36:38.659Z,26.92
2023-03-21T04:37:40.188Z,27.35
2023-03-21T04:38:41.591Z,28.27
2023-03-21T04:39:43.123Z,27.67
2023-03-21T04:40:44.544Z,26.70
2023-03-21T04:41:46.679Z,27.25
2023-03-21T04:42:48.799Z,26.95
2023-03-21T04:43:52.317Z,27.05
2023-03-21T04:44:53.911Z,27.55
2023-03-21T04:45:55.784Z,28.58
2023-03-21T04:46:57.213Z,27.88
2023-03-21T04:47:58.841Z,28.30
2023-03-21T04:49:00.342Z,28.50
2023-03-21T04:50:01.995Z,29.48
2023-03-21T04:51:03.617Z,29.38
2023-03-21T04:52:05.628Z,28.35
2023-03-21T04:55:10.093Z,26.35
2023-03-21T04:56:12.007Z,27.30
2023-03-21T04:57:13.837Z,27.65
2023-03-21T04:58:15.342Z,26.58
2023-03-21T04:59:17.020Z,27.77
2023-03-21T05:00:18.733Z,28.23
2023-03-21T05:01:21.002Z,28.20
2023-03-21T05:02:22.730Z,27.90
2023-03-21T05:03:25.284Z,27.73
2023-03-21T05:04:27.724Z,27.45
2023-03-21T05:05:29.261Z,27.70
2023-03-21T05:06:31.981Z,28.35
2023-03-21T05:07:33.469Z,28.85
2023-03-21T05:08:35.896Z,27.17
2023-03-21T05:09:37.555Z,27.08
2023-03-21T05:10:39.066Z,27.58
2023-03-21T05:11:41.540Z,27.88
2023-03-21T05:12:43.087Z,28.30
2023-03-21T05:13:44.543Z,27.70
2023-03-21T05:14:45.977Z,27.88
2023-03-21T05:15:47.426Z,27.42
2023-03-21T05:16:53.206Z,27.55
2023-03-21T05:17:55.480Z,27.48
2023-03-21T05:20:00.370Z,25.25
2023-03-21T05:21:01.810Z,25.65
2023-03-21T05:22:09.400Z,27.20
2023-03-21T05:23:11.635Z,27.17
2023-03-21T05:24:19.283Z,26.70
2023-03-21T05:25:35.085Z,26.98
2023-03-21T05:26:36.568Z,27.30
2023-03-21T05:27:38.090Z,27.45
2023-03-21T05:28:39.910Z,27.50
2023-03-21T05:29:41.352Z,28.27
2023-03-21T05:30:42.809Z,27.73
2023-03-21T05:31:45.142Z,26.45
2023-03-21T05:32:46.942Z,28.20
2023-03-21T05:33:48.687Z,27.73
2023-03-21T05:34:50.279Z,28.42
2023-03-21T05:35:51.810Z,28.23
2023-03-21T05:36:53.836Z,28.25
2023-03-21T05:38:56.648Z,26.00
2023-03-21T05:39:58.083Z,27.23
2023-03-21T05:40:59.605Z,27.83
2023-03-21T05:42:01.065Z,29.17
2023-03-21T05:43:02.513Z,29.48
2023-03-21T05:44:03.979Z,29.42
2023-03-21T05:45:06.096Z,29.98
2023-03-21T05:46:08.309Z,29.67
2023-03-21T05:47:09.838Z,30.15
2023-03-21T05:48:11.341Z,29.27
2023-03-21T05:49:12.857Z,28.63
2023-03-21T05:50:15.172Z,28.98
2023-03-21T05:51:17.633Z,28.70
2023-03-21T05:52:19.205Z,29.80
2023-03-21T05:53:23.105Z,29.15
2023-03-21T05:54:24.733Z,28.52
2023-03-21T05:55:26.175Z,28.17
2023-03-21T05:56:27.591Z,25.70
2023-03-21T05:57:29.580Z,28.40
2023-03-21T05:59:32.498Z,25.90
2023-03-21T06:00:34.029Z,25.98
2023-03-21T06:01:35.626Z,26.15
2023-03-21T06:02:37.551Z,27.48
2023-03-21T06:03:39.097Z,29.05
2023-03-21T06:04:40.779Z,27.73
2023-03-21T06:05:42.263Z,28.40
2023-03-21T06:06:43.883Z,27.42
2023-03-21T06:07:45.323Z,27.58
2023-03-21T06:08:48.675Z,25.50
2023-03-21T06:09:50.375Z,27.67
2023-03-21T06:10:51.841Z,26.75
2023-03-21T06:11:55.892Z,25.50
2023-03-21T06:12:57.298Z,25.70
2023-03-21T06:13:58.839Z,27.63
2023-03-21T06:15:01.744Z,27.05
2023-03-21T06:16:03.526Z,25.83
2023-03-21T06:17:05.956Z,26.33
2023-03-21T06:18:07.391Z,25.90
2023-03-21T06:19:09.154Z,26.67
2023-03-21T06:20:11.742Z,27.02
2023-03-21T06:21:13.881Z,26.95
2023-03-21T06:22:15.507Z,26.10
2023-03-21T06:23:17.907Z,27.42
2023-03-21T06:24:19.373Z,28.10
2023-03-21T06:25:21.348Z,26.58
2023-03-21T06:27:24.896Z,25.58
2023-03-21T06:28:26.763Z,26.08
2023-03-21T06:29:28.209Z,26.25
2023-03-21T06:30:29.673Z,27.50
2023-03-21T06:31:31.454Z,27.13
2023-03-21T06:32:33.094Z,26.85
2023-03-21T06:33:34.520Z,28.10
2023-03-21T06:34:37.354Z,27.55
2023-03-21T06:35:40.657Z,25.10
2023-03-21T06:36:44.689Z,26.73
2023-03-21T06:37:49.331Z,27.02
2023-03-21T06:38:50.938Z,27.30
2023-03-21T06:39:55.335Z,27.23
2023-03-21T06:40:57.540Z,25.95
2023-03-21T06:43:00.422Z,24.45
2023-03-21T06:44:02.331Z,26.17
2023-03-21T06:45:04.218Z,27.00
2023-03-21T06:46:05.932Z,27.15
2023-03-21T06:47:07.442Z,26.45
2023-03-21T06:48:09.490Z,26.70
2023-03-21T06:49:11.013Z,26.38
2023-03-21T06:50:12.797Z,27.08
2023-03-21T06:51:15.509Z,25.92
2023-03-21T06:52:16.983Z,28.30
2023-03-21T06:53:20.633Z,28.33
2023-03-21T06:54:22.109Z,28.60
2023-03-21T06:55:26.779Z,27.23
2023-03-21T06:56:28.212Z,27.98
2023-03-21T06:57:29.663Z,27.17
2023-03-21T06:58:31.591Z,28.08
2023-03-21T06:59:33.173Z,27.33
2023-03-21T07:00:34.939Z,26.27
2023-03-21T07:01:36.452Z,26.15
2023-03-21T07:02:38.190Z,26.17
2023-03-21T07:03:40.221Z,27.17
2023-03-21T07:04:41.914Z,27.17
2023-03-21T07:05:43.668Z,26.00
2023-03-21T07:06:45.308Z,27.10
2023-03-21T07:07:46.766Z,26.23
2023-03-21T07:08:48.217Z,27.55
2023-03-21T07:09:49.793Z,27.52
2023-03-21T07:10:56.857Z,27.30
2023-03-21T07:11:58.383Z,26.27
2023-03-21T07:13:00.566Z,26.67
2023-03-21T07:14:02.365Z,29.73
2023-03-21T07:15:04.405Z,28.48
2023-03-21T07:16:06.640Z,28.17
2023-03-21T07:17:08.335Z,28.08
2023-03-21T07:18:10.314Z,26.92
2023-03-21T07:20:13.310Z,25.88
2023-03-21T07:21:14.846Z,25.58
2023-03-21T07:22:16.563Z,27.75
2023-03-21T07:23:23.014Z,28.17
2023-03-21T07:24:24.481Z,28.10
2023-03-21T07:25:25.953Z,28.05
2023-03-21T07:26:27.427Z,27.88
2023-03-21T07:27:28.866Z,28.83
2023-03-21T07:28:31.873Z,29.45
2023-03-21T07:29:33.344Z,29.67
2023-03-21T07:30:35.401Z,28.85
2023-03-21T07:31:39.814Z,30.20
2023-03-21T07:32:41.388Z,31.00
2023-03-21T07:33:43.350Z,30.50
2023-03-21T07:35:46.171Z,27.13
2023-03-21T07:36:47.656Z,28.30
2023-03-21T07:37:49.069Z,28.38
2023-03-21T07:38:50.776Z,27.58
2023-03-21T07:39:53.173Z,28.45
2023-03-21T07:40:54.605Z,28.65
2023-03-21T07:41:56.050Z,28.60
2023-03-21T07:42:58.122Z,28.67
2023-03-21T07:43:59.573Z,30.05
2023-03-21T07:45:00.987Z,28.10
2023-03-21T07:46:02.587Z,29.58
2023-03-21T07:47:05.673Z,27.92
2023-03-21T07:48:07.170Z,27.40
2023-03-21T07:49:08.954Z,27.85
2023-03-21T07:50:10.660Z,28.35
2023-03-21T07:51:12.082Z,28.25
2023-03-21T07:52:16.113Z,28.83
2023-03-21T07:53:17.845Z,29.67
2023-03-21T07:54:22.194Z,26.75
2023-03-21T07:55:23.747Z,27.30
2023-03-21T07:56:25.201Z,27.45
2023-03-21T07:57:26.645Z,26.05
2023-03-21T07:58:28.548Z,28.85
2023-03-21T08:00:31.730Z,26.48
2023-03-21T08:01:33.237Z,26.60
2023-03-21T08:02:34.698Z,26.23
2023-03-21T08:03:36.200Z,27.23
2023-03-21T08:04:38.906Z,28.13
2023-03-21T08:05:41.530Z,27.80
2023-03-21T08:06:43.416Z,27.08
2023-03-21T08:07:44.929Z,26.58
2023-03-21T08:08:46.938Z,26.35
2023-03-21T08:10:49.795Z,25.77
2023-03-21T08:11:51.264Z,26.42
2023-03-21T08:12:52.855Z,29.40
2023-03-21T08:13:55.473Z,28.70
2023-03-21T08:14:59.325Z,25.80
2023-03-21T08:16:02.151Z,27.75
2023-03-21T08:17:05.788Z,29.67
2023-03-21T08:18:07.758Z,27.40
2023-03-21T08:20:13.194Z,25.13
2023-03-21T08:21:14.781Z,25.98
2023-03-21T08:22:16.303Z,27.40
2023-03-21T08:23:17.856Z,28.55
2023-03-21T08:24:19.691Z,28.20
2023-03-21T08:25:22.194Z,29.00
2023-03-21T08:26:26.455Z,29.02
2023-03-21T08:27:27.934Z,28.15
2023-03-21T08:28:29.338Z,26.85
2023-03-21T08:29:30.750Z,27.33
2023-03-21T08:30:32.640Z,26.48
2023-03-21T08:32:38.493Z,25.98
2023-03-21T08:33:40.170Z,25.40
2023-03-21T08:34:42.697Z,28.38
2023-03-21T08:35:44.833Z,29.63
2023-03-21T08:36:47.185Z,29.58
2023-03-21T08:37:48.840Z,23.40
2023-03-21T08:38:54.143Z,25.73
2023-03-21T08:39:55.818Z,25.48
2023-03-21T08:41:00.097Z,27.95
2023-03-21T08:42:01.615Z,27.00
2023-03-21T08:43:03.604Z,28.20
2023-03-21T08:45:10.962Z,25.20
2023-03-21T08:46:12.466Z,29.20
2023-03-21T08:47:14.348Z,28.10
2023-03-21T08:48:15.928Z,26.90
2023-03-21T08:49:17.386Z,28.63
2023-03-21T08:50:24.617Z,27.67
2023-03-21T08:51:26.111Z,27.05
2023-03-21T08:52:27.898Z,26.63
2023-03-21T08:53:29.458Z,28.63
2023-03-21T08:54:30.849Z,26.27
2023-03-21T08:55:33.129Z,28.55
2023-03-21T08:56:36.312Z,25.40
2023-03-21T08:57:39.000Z,28.13
2023-03-21T08:58:40.467Z,26.80
2023-03-21T08:59:41.913Z,27.98
2023-03-21T09:00:43.406Z,27.92
2023-03-21T09:01:45.409Z,27.00
2023-03-21T09:02:49.584Z,24.50
2023-03-21T09:03:51.373Z,25.55
2023-03-21T09:04:54.777Z,24.77
2023-03-21T09:05:58.297Z,26.65
2023-03-21T09:07:01.471Z,24.90
2023-03-21T09:08:03.390Z,26.20
2023-03-21T09:09:07.463Z,26.27
2023-03-21T09:10:21.126Z,24.83
2023-03-21T09:11:23.503Z,23.73
2023-03-21T09:12:24.895Z,24.40
2023-03-21T09:13:26.596Z,24.30
2023-03-21T09:14:29.116Z,25.92
2023-03-21T09:15:31.558Z,25.63
2023-03-21T09:16:33.677Z,25.58
2023-03-21T09:17:36.314Z,26.20
2023-03-21T09:18:50.552Z,26.50
2023-03-21T09:19:53.310Z,27.08
2023-03-21T09:20:55.468Z,30.15
2023-03-21T09:21:57.809Z,30.50
2023-03-21T09:23:01.531Z,26.85
2023-03-21T09:24:06.518Z,26.67
2023-03-21T09:25:08.319Z,25.77
2023-03-21T09:26:09.727Z,25.88
2023-03-21T09:27:11.187Z,26.38
2023-03-21T09:28:13.343Z,26.45
2023-03-21T09:29:15.911Z,26.17
2023-03-21T09:30:20.645Z,25.48
2023-03-21T09:31:23.314Z,25.13
2023-03-21T09:32:25.131Z,25.58
2023-03-21T09:33:28.816Z,25.63
2023-03-21T09:34:30.287Z,26.08
2023-03-21T09:35:32.740Z,25.25
2023-03-21T09:36:36.219Z,23.80
2023-03-21T09:37:42.219Z,27.33
2023-03-21T09:38:45.583Z,24.88
2023-03-21T09:39:47.244Z,25.40
2023-03-21T09:40:58.030Z,23.75
2023-03-21T09:42:17.577Z,24.70
2023-03-21T09:43:43.944Z,25.20
2023-03-21T09:45:06.074Z,23.83
2023-03-21T09:46:24.579Z,24.40
2023-03-21T09:47:33.227Z,23.23
2023-03-21T09:48:56.653Z,23.98
2023-03-21T09:50:17.121Z,22.95
2023-03-21T09:51:19.389Z,22.98
2023-03-21T09:52:34.341Z,23.48
2023-03-21T09:53:40.107Z,23.08
2023-03-21T09:54:45.828Z,24.25
2023-03-21T09:55:47.438Z,22.95
2023-03-21T09:56:53.499Z,23.77
2023-03-21T09:58:15.181Z,23.52
2023-03-21T09:59:33.361Z,22.75
2023-03-21T10:00:39.626Z,22.50
2023-03-21T10:01:45.471Z,22.88
2023-03-21T10:02:51.699Z,22.73
2023-03-21T10:03:54.992Z,21.75
2023-03-21T10:04:58.000Z,20.65
2023-03-21T10:06:01.466Z,20.80
2023-03-21T10:07:03.983Z,21.30
2023-03-21T10:08:16.593Z,21.90
2023-03-21T10:09:22.846Z,22.02
2023-03-21T10:10:32.171Z,20.80
2023-03-21T10:11:50.861Z,22.25
2023-03-21T10:12:54.364Z,21.65
2023-03-21T10:14:04.861Z,21.58
2023-03-21T10:15:06.720Z,20.83
2023-03-21T10:16:21.208Z,20.83
2023-03-21T10:17:37.621Z,21.17
2023-03-21T10:18:41.979Z,20.70
2023-03-21T10:19:46.438Z,21.05
2023-03-21T10:20:49.019Z,20.27
2023-03-21T10:22:01.729Z,20.77
2023-03-21T10:24:13.685Z,19.55
2023-03-21T10:25:21.953Z,19.38
2023-03-21T10:26:27.892Z,19.75
2023-03-21T10:27:29.834Z,21.13
2023-03-21T10:29:57.441Z,18.70
2023-03-21T10:31:10.924Z,18.67
2023-03-21T10:32:17.322Z,19.35
2023-03-21T10:33:23.589Z,21.23
2023-03-21T10:34:34.310Z,19.88
2023-03-21T10:35:39.849Z,20.17
2023-03-21T10:36:41.724Z,20.88
2023-03-21T10:37:43.158Z,21.48
2023-03-21T10:38:50.864Z,21.95
2023-03-21T10:39:54.921Z,22.27
2023-03-21T10:40:56.696Z,19.80
2023-03-21T10:41:58.379Z,19.98
2023-03-21T10:43:21.623Z,20.60
2023-03-21T10:44:30.236Z,18.85
2023-03-21T10:45:35.611Z,18.35
2023-03-21T10:46:37.793Z,19.48
2023-03-21T10:47:39.836Z,18.67
2023-03-21T10:48:46.317Z,19.15
2023-03-21T10:50:06.783Z,19.00
2023-03-21T10:51:09.969Z,18.77
2023-03-21T10:52:13.785Z,19.05
2023-03-21T10:53:22.853Z,19.33
2023-03-21T10:54:29.821Z,19.33
2023-03-21T10:55:34.202Z,18.92
2023-03-21T10:56:39.216Z,20.80
2023-03-21T10:57:40.719Z,21.63
2023-03-21T10:58:46.842Z,20.00
2023-03-21T10:59:57.889Z,18.92
2023-03-21T11:01:03.345Z,18.35
2023-03-21T11:02:06.773Z,18.77
2023-03-21T11:03:31.521Z,18.13
2023-03-21T11:04:33.426Z,16.92
2023-03-21T11:06:41.342Z,16.67
2023-03-21T11:07:43.197Z,16.90
2023-03-21T11:08:50.866Z,16.55
2023-03-21T11:09:59.035Z,17.45
2023-03-21T11:11:09.697Z,17.55
2023-03-21T11:12:13.812Z,18.67
2023-03-21T11:13:25.879Z,22.42
2023-03-21T11:14:36.646Z,16.98
2023-03-21T11:15:46.691Z,19.40
2023-03-21T11:16:48.213Z,17.70
2023-03-21T11:17:49.681Z,17.48
2023-03-21T11:18:56.464Z,31.55
2023-03-21T11:20:09.228Z,17.42
2023-03-21T11:21:14.124Z,16.60
2023-03-21T11:22:16.875Z,15.60
2023-03-21T11:23:20.930Z,15.68
2023-03-21T11:24:22.661Z,16.17
2023-03-21T11:25:39.299Z,16.65
2023-03-21T11:26:44.424Z,15.68
2023-03-21T11:27:54.800Z,15.25
2023-03-21T11:28:57.457Z,15.40
2023-03-21T11:30:02.067Z,15.25
2023-03-21T11:31:06.067Z,16.50
2023-03-21T11:32:12.313Z,15.43
2023-03-21T11:33:13.786Z,16.52
2023-03-21T11:34:28.117Z,15.10
2023-03-21T11:35:38.759Z,16.60
2023-03-21T11:36:40.816Z,17.02
2023-03-21T11:38:56.144Z,14.07
2023-03-21T11:40:09.318Z,14.57
2023-03-21T11:41:25.746Z,15.63
2023-03-21T11:42:33.300Z,15.02
2023-03-21T11:43:39.665Z,15.38
2023-03-21T11:44:44.136Z,15.65
2023-03-21T11:46:10.030Z,14.63
2023-03-21T11:47:11.536Z,14.55
2023-03-21T11:48:14.795Z,14.00
2023-03-21T11:49:16.266Z,14.50
2023-03-21T11:50:22.358Z,15.10
2023-03-21T11:51:45.111Z,13.93
2023-03-21T11:53:17.349Z,13.98
2023-03-21T11:54:25.210Z,13.75
2023-03-21T11:56:39.377Z,13.43
2023-03-21T11:57:46.661Z,13.63
2023-03-21T11:59:06.888Z,13.65
2023-03-21T12:00:34.420Z,13.05
2023-03-21T12:02:20.497Z,13.90
2023-03-21T12:03:45.318Z,13.10
2023-03-21T12:05:00.274Z,13.57
2023-03-21T12:06:05.976Z,15.98
2023-03-21T12:07:41.522Z,13.40
2023-03-21T12:08:45.745Z,13.55
2023-03-21T12:10:20.499Z,12.88
2023-03-21T12:11:34.548Z,13.48
2023-03-21T12:14:18.187Z,12.15
2023-03-21T12:15:31.363Z,12.95
2023-03-21T12:16:54.757Z,13.60
2023-03-21T12:18:11.104Z,12.75
2023-03-21T12:19:30.828Z,12.77
2023-03-21T12:20:44.433Z,12.27
2023-03-21T12:22:07.456Z,12.77
2023-03-21T12:23:20.787Z,12.98
2023-03-21T12:24:26.745Z,12.63
2023-03-21T12:25:56.357Z,13.73
2023-03-21T12:27:29.807Z,17.60
2023-03-21T12:28:56.459Z,16.80
2023-03-21T12:30:23.747Z,12.68
2023-03-21T12:31:55.865Z,13.43
2023-03-21T12:33:36.417Z,11.77
2023-03-21T12:34:44.044Z,12.00
2023-03-21T12:35:54.347Z,11.98
2023-03-21T12:37:34.419Z,12.52
2023-03-21T12:38:35.931Z,11.65
2023-03-21T12:39:40.429Z,11.85
2023-03-21T12:40:50.879Z,11.90
2023-03-21T12:41:59.188Z,11.85
2023-03-21T12:43:20.671Z,12.55
2023-03-21T12:44:26.269Z,12.70
2023-03-21T12:45:45.795Z,12.13
2023-03-21T12:46:55.394Z,12.65
2023-03-21T12:48:03.737Z,13.57
2023-03-21T12:49:12.928Z,12.95
2023-03-21T12:50:20.986Z,12.20
2023-03-21T12:51:32.354Z,11.75
2023-03-21T12:52:39.208Z,11.98
2023-03-21T12:54:05.436Z,11.90
2023-03-21T12:55:16.726Z,10.57
2023-03-21T12:56:31.317Z,12.00
2023-03-21T12:57:44.620Z,12.05
2023-03-21T12:58:57.936Z,11.30
2023-03-21T13:00:13.208Z,10.93
2023-03-21T13:01:18.131Z,10.93
2023-03-21T13:02:43.362Z,10.40
2023-03-21T13:03:51.473Z,10.43
2023-03-21T13:05:00.039Z,10.35
2023-03-21T13:06:06.090Z,10.15
2023-03-21T13:07:12.585Z,10.60
2023-03-21T13:08:33.904Z,11.07
2023-03-21T13:09:38.569Z,10.52
2023-03-21T13:10:43.466Z,9.95
2023-03-21T13:11:45.607Z,9.90
2023-03-21T13:13:13.412Z,10.65
2023-03-21T13:14:24.118Z,10.50
2023-03-21T13:15:50.752Z,10.43
2023-03-21T13:17:00.975Z,9.48
2023-03-21T13:18:15.671Z,9.85
2023-03-21T13:19:24.109Z,9.88
2023-03-21T13:20:44.945Z,10.52
2023-03-21T13:22:07.713Z,10.57
2023-03-21T13:23:09.343Z,10.30
2023-03-21T13:24:31.943Z,10.20
2023-03-21T13:25:39.022Z,11.00
2023-03-21T13:26:42.131Z,9.93
2023-03-21T13:27:47.195Z,10.52
2023-03-21T13:28:48.707Z,10.63
2023-03-21T13:29:51.726Z,11.00
2023-03-21T13:30:53.895Z,10.40
2023-03-21T13:31:59.213Z,10.40
2023-03-21T13:33:08.283Z,10.57
2023-03-21T13:34:10.237Z,9.65
2023-03-21T13:36:28.058Z,9.75
2023-03-21T13:37:33.969Z,9.15
2023-03-21T13:38:39.850Z,10.52
2023-03-21T13:39:45.353Z,9.27
2023-03-21T13:41:09.363Z,10.05
2023-03-21T13:42:22.031Z,10.40
2023-03-21T13:44:05.911Z,10.32
2023-03-21T13:45:11.681Z,10.10
2023-03-21T13:46:53.377Z,9.98
2023-03-21T13:48:05.795Z,9.57
2023-03-21T13:49:10.559Z,10.10
2023-03-21T13:50:17.723Z,10.35
2023-03-21T13:51:28.319Z,9.55
2023-03-21T13:52:29.990Z,10.45
2023-03-21T13:53:43.727Z,9.77
2023-03-21T13:54:51.903Z,10.43
2023-03-21T13:56:08.753Z,10.55
2023-03-21T13:57:22.410Z,9.88
2023-03-21T13:58:33.048Z,9.40
2023-03-21T13:59:40.069Z,9.38
2023-03-21T14:00:41.511Z,10.05
2023-03-21T14:02:06.077Z,10.73
2023-03-21T14:03:17.806Z,10.38
2023-03-21T14:04:24.172Z,10.32
2023-03-21T14:05:30.781Z,9.80
2023-03-21T14:06:50.679Z,10.23
2023-03-21T14:09:04.890Z,9.95
2023-03-21T14:10:17.484Z,10.13
2023-03-21T14:11:20.513Z,9.85
2023-03-21T14:12:28.819Z,10.25
2023-03-21T14:13:33.106Z,10.65
2023-03-21T14:14:40.746Z,10.48
2023-03-21T14:15:55.949Z,10.38
2023-03-21T14:16:58.027Z,10.73
2023-03-21T14:18:10.955Z,9.77
2023-03-21T14:19:31.150Z,10.40
2023-03-21T14:20:38.377Z,9.82
2023-03-21T14:21:48.228Z,10.15
2023-03-21T14:22:50.049Z,10.13
2023-03-21T14:23:58.574Z,9.57
2023-03-21T14:25:01.978Z,9.43
2023-03-21T14:26:04.106Z,9.55
2023-03-21T14:27:06.021Z,9.38
2023-03-21T14:29:26.019Z,8.88
2023-03-21T14:30:38.309Z,9.15
2023-03-21T14:31:40.106Z,9.43
2023-03-21T14:32:42.609Z,9.48
2023-03-21T14:33:51.762Z,9.95
2023-03-21T14:34:59.632Z,8.93
2023-03-21T14:37:12.105Z,8.35
2023-03-21T14:38:22.601Z,10.30
2023-03-21T14:39:30.969Z,9.18
2023-03-21T14:40:32.487Z,9.15
2023-03-21T14:41:43.800Z,9.07
2023-03-21T14:42:48.639Z,8.90
2023-03-21T14:44:38.005Z,8.75
2023-03-21T14:45:50.226Z,9.60
2023-03-21T14:46:53.826Z,9.20
2023-03-21T14:47:56.523Z,9.45
2023-03-21T14:49:11.429Z,9.02
2023-03-21T14:50:12.923Z,9.13
2023-03-21T14:51:15.960Z,9.07
2023-03-21T14:52:33.103Z,8.45
2023-03-21T14:53:40.133Z,9.13
2023-03-21T14:54:44.113Z,9.80
2023-03-21T14:55:50.764Z,9.25
2023-03-21T14:56:57.085Z,9.52
2023-03-21T14:57:58.650Z,8.68
2023-03-21T14:59:00.195Z,8.75
2023-03-21T15:00:12.862Z,8.98